createdAt,value
2022-10-18T00:00:57.303Z,20.63
2022-10-18T00:03:25.555Z,21.75
2022-10-18T00:05:53.789Z,18.48
2022-10-18T00:08:22.181Z,18.98
2022-10-18T00:10:51.805Z,19.27
2022-10-18T00:13:20.288Z,19.52
2022-10-18T00:15:52.899Z,21.25
2022-10-18T00:18:21.508Z,18.67
2022-10-18T00:20:59.128Z,19.27
2022-10-18T00:23:27.899Z,19.23
2022-10-18T00:26:06.109Z,21.58
2022-10-18T00:28:35.149Z,19.02
2022-10-18T00:31:15.117Z,19.00
2022-10-18T00:33:44.517Z,18.50
2022-10-18T00:36:13.128Z,20.63
2022-10-18T00:38:42.207Z,18.20
2022-10-18T00:41:14.481Z,16.40
2022-10-18T00:43:56.814Z,17.02
2022-10-18T00:46:26.265Z,16.98
2022-10-18T00:48:55.804Z,17.10
2022-10-18T00:51:24.557Z,20.55
2022-10-18T00:53:53.005Z,15.90
2022-10-18T00:56:22.592Z,15.80
2022-10-18T00:58:52.376Z,15.20
2022-10-18T01:01:23.191Z,15.45
2022-10-18T01:03:54.391Z,15.95
2022-10-18T01:06:22.485Z,15.45
2022-10-18T01:09:08.196Z,14.90
2022-10-18T01:11:56.400Z,16.25
2022-10-18T01:14:49.120Z,15.45
2022-10-18T01:17:21.238Z,13.57
2022-10-18T01:20:24.315Z,14.93
2022-10-18T01:22:59.184Z,15.32
2022-10-18T01:25:41.517Z,13.75
2022-10-18T01:28:32.980Z,13.57
2022-10-18T01:31:04.881Z,15.07
2022-10-18T01:33:39.193Z,13.40
2022-10-18T01:36:12.755Z,13.60
2022-10-18T01:38:43.508Z,14.00
2022-10-18T01:41:15.831Z,13.57
2022-10-18T01:43:46.389Z,11.38
2022-10-18T01:46:20.124Z,13.63
2022-10-18T01:48:48.548Z,11.70
2022-10-18T01:51:19.264Z,10.77
2022-10-18T01:53:47.283Z,11.00
2022-10-18T01:56:24.681Z,10.77
2022-10-18T01:59:03.619Z,10.23
2022-10-18T02:01:41.816Z,9.98
2022-10-18T02:04:19.969Z,10.60
2022-10-18T02:06:54.902Z,8.70
2022-10-18T02:09:31.221Z,9.45
2022-10-18T02:12:00.145Z,9.20
2022-10-18T02:14:28.872Z,8.90
2022-10-18T02:17:03.187Z,9.52
2022-10-18T02:19:34.541Z,10.27
2022-10-18T02:22:04.232Z,11.32
2022-10-18T02:24:38.025Z,8.70
2022-10-18T02:27:06.505Z,11.48
2022-10-18T02:29:35.471Z,11.60
2022-10-18T02:32:10.619Z,10.75
2022-10-18T02:34:41.763Z,8.85
2022-10-18T02:37:12.216Z,10.00
2022-10-18T02:39:46.226Z,10.68
2022-10-18T02:42:15.943Z,9.77
2022-10-18T02:44:44.255Z,8.82
2022-10-18T02:47:14.015Z,9.90
2022-10-18T02:49:41.987Z,9.70
2022-10-18T02:52:09.906Z,10.00
2022-10-18T02:54:37.810Z,9.70
2022-10-18T02:57:05.978Z,10.73
2022-10-18T02:59:33.904Z,11.07
2022-10-18T03:02:01.791Z,12.05
2022-10-18T03:04:31.641Z,10.95
2022-10-18T03:06:59.626Z,13.07
2022-10-18T03:09:27.677Z,10.95
2022-10-18T03:11:55.757Z,10.45
2022-10-18T03:14:23.672Z,9.52
2022-10-18T03:16:51.647Z,13.20
2022-10-18T03:19:19.797Z,13.40
2022-10-18T03:21:49.085Z,14.20
2022-10-18T03:24:17.214Z,15.57
2022-10-18T03:26:45.296Z,16.48
2022-10-18T03:29:13.446Z,18.98
2022-10-18T03:31:41.440Z,19.42
2022-10-18T03:34:09.651Z,19.88
2022-10-18T03:36:38.670Z,20.15
2022-10-18T03:39:07.956Z,17.50
2022-10-18T03:41:36.478Z,19.27
2022-10-18T03:44:04.406Z,20.45
2022-10-18T03:46:32.360Z,17.15
2022-10-18T03:49:00.888Z,28.08
2022-10-18T03:51:28.829Z,19.60
2022-10-18T03:53:56.753Z,18.85
2022-10-18T03:56:26.217Z,18.42
2022-10-18T03:58:54.110Z,19.00
2022-10-18T04:01:22.085Z,18.88
2022-10-18T04:03:50.223Z,18.65
2022-10-18T04:06:18.138Z,20.67
2022-10-18T04:08:46.096Z,19.83
2022-10-18T04:11:14.164Z,20.20
2022-10-18T04:13:43.425Z,16.80
2022-10-18T04:16:11.336Z,17.88
2022-10-18T04:18:39.406Z,20.00
2022-10-18T04:21:07.963Z,20.35
2022-10-18T04:23:38.648Z,18.90
2022-10-18T04:26:07.386Z,17.55
2022-10-18T04:28:39.840Z,18.60
2022-10-18T04:31:09.721Z,18.73
2022-10-18T04:33:37.880Z,17.83
2022-10-18T04:36:06.160Z,14.85
2022-10-18T04:38:34.258Z,19.45
2022-10-18T04:41:02.199Z,20.27
2022-10-18T04:43:30.163Z,16.58
2022-10-18T04:45:58.229Z,17.50
2022-10-18T04:48:27.532Z,19.20
2022-10-18T04:50:55.451Z,18.27
2022-10-18T04:53:23.472Z,16.58
2022-10-18T04:55:51.845Z,17.42
2022-10-18T04:58:20.244Z,16.90
2022-10-18T05:00:48.633Z,17.75
2022-10-18T05:03:16.831Z,18.17
2022-10-18T05:06:02.628Z,16.92
2022-10-18T05:08:31.961Z,17.15
2022-10-18T05:11:00.450Z,18.05
2022-10-18T05:13:28.668Z,17.05
2022-10-18T05:15:57.228Z,16.33
2022-10-18T05:18:25.202Z,17.75
2022-10-18T05:20:54.603Z,17.70
2022-10-18T05:23:22.748Z,14.98
2022-10-18T05:25:50.724Z,16.63
2022-10-18T05:28:38.607Z,16.70
2022-10-18T05:31:08.424Z,15.55
2022-10-18T05:33:36.874Z,16.20
2022-10-18T05:36:06.618Z,16.08
2022-10-18T05:41:07.786Z,15.07
2022-10-18T05:43:36.094Z,15.10
2022-10-18T05:46:07.190Z,19.63
2022-10-18T05:48:37.319Z,17.13
2022-10-18T05:51:06.919Z,17.70
2022-10-18T05:53:37.378Z,15.80
2022-10-18T05:56:06.872Z,15.88
2022-10-18T05:58:35.042Z,15.32
2022-10-18T06:01:04.473Z,16.27
2022-10-18T06:03:33.128Z,16.05
2022-10-18T06:06:01.702Z,14.15
2022-10-18T06:08:31.310Z,13.85
2022-10-18T06:10:59.470Z,15.73
2022-10-18T06:13:29.988Z,15.77
2022-10-18T06:15:59.279Z,15.00
2022-10-18T06:18:27.546Z,15.98
2022-10-18T06:20:58.983Z,14.90
2022-10-18T06:23:27.478Z,14.25
2022-10-18T06:26:00.262Z,13.82
2022-10-18T06:28:29.237Z,14.10
2022-10-18T06:30:57.796Z,15.38
2022-10-18T06:33:26.094Z,14.55
2022-10-18T06:36:02.518Z,15.35
2022-10-18T06:38:31.565Z,14.02
2022-10-18T06:41:01.288Z,14.88
2022-10-18T06:43:29.476Z,14.60
2022-10-18T06:45:57.860Z,14.35
2022-10-18T06:48:26.224Z,12.88
2022-10-18T06:50:56.957Z,14.57
2022-10-18T06:53:25.129Z,14.20
2022-10-18T06:56:02.142Z,13.48
2022-10-18T06:58:30.376Z,14.35
2022-10-18T07:00:58.429Z,13.82
2022-10-18T07:03:27.357Z,14.75
2022-10-18T07:09:50.146Z,11.73
2022-10-18T07:12:19.417Z,13.93
2022-10-18T07:14:51.380Z,13.38
2022-10-18T07:17:26.171Z,11.77
2022-10-18T07:19:57.567Z,11.88
2022-10-18T07:22:30.075Z,12.35
2022-10-18T07:25:01.558Z,12.80
2022-10-18T07:31:24.640Z,10.77
2022-10-18T07:33:53.195Z,10.15
2022-10-18T07:36:22.281Z,10.95
2022-10-18T07:38:52.549Z,12.23
2022-10-18T07:41:21.757Z,11.50
2022-10-18T07:43:51.802Z,11.95
2022-10-18T07:46:21.085Z,12.75
2022-10-18T07:48:51.325Z,12.32
2022-10-18T07:51:21.182Z,11.63
2022-10-18T07:53:49.666Z,11.98
2022-10-18T07:56:20.518Z,12.73
2022-10-18T07:59:10.467Z,12.70
2022-10-18T08:01:38.623Z,12.00
2022-10-18T08:04:11.592Z,9.75
2022-10-18T08:06:42.663Z,11.75
2022-10-18T08:09:10.977Z,10.77
2022-10-18T08:11:40.293Z,10.90
2022-10-18T08:14:08.660Z,11.32
2022-10-18T08:16:36.951Z,10.73
2022-10-18T08:19:05.466Z,10.73
2022-10-18T08:21:35.132Z,9.75
2022-10-18T08:24:03.327Z,10.18
2022-10-18T08:26:31.729Z,11.07
2022-10-18T08:31:50.997Z,10.63
2022-10-18T08:34:19.982Z,10.13
2022-10-18T08:36:49.642Z,10.63
2022-10-18T08:39:18.109Z,12.70
2022-10-18T08:42:10.098Z,12.85
2022-10-18T08:44:44.812Z,12.05
2022-10-18T08:47:16.870Z,12.65
2022-10-18T08:49:47.689Z,13.00
2022-10-18T08:52:25.276Z,13.15
2022-10-18T08:54:59.782Z,11.90
2022-10-18T08:57:28.281Z,12.25
2022-10-18T08:59:56.473Z,12.52
2022-10-18T09:02:38.709Z,11.95
2022-10-18T09:05:18.321Z,12.63
2022-10-18T09:08:13.779Z,12.13
2022-10-18T09:10:53.541Z,12.77
2022-10-18T09:13:50.781Z,12.00
2022-10-18T09:16:23.560Z,11.88
2022-10-18T09:19:00.974Z,11.70
2022-10-18T09:21:44.269Z,11.00
2022-10-18T09:24:18.778Z,10.60
2022-10-18T09:26:49.027Z,11.07
2022-10-18T09:29:42.715Z,10.45
2022-10-18T09:32:25.025Z,8.57
2022-10-18T09:34:58.230Z,9.23
2022-10-18T09:37:30.246Z,9.27
2022-10-18T09:40:07.775Z,9.90
2022-10-18T09:42:39.135Z,8.80
2022-10-18T09:45:17.930Z,9.10
2022-10-18T09:47:52.613Z,9.02
2022-10-18T09:50:28.053Z,9.60
2022-10-18T09:53:03.101Z,8.95
2022-10-18T09:55:37.843Z,8.85
2022-10-18T09:58:09.020Z,9.55
2022-10-18T10:00:45.969Z,9.15
2022-10-18T10:03:14.899Z,8.57
2022-10-18T10:05:43.172Z,8.90
2022-10-18T10:08:11.788Z,8.85
2022-10-18T10:10:46.926Z,8.60
2022-10-18T10:13:22.185Z,8.13
2022-10-18T10:15:55.555Z,7.65
2022-10-18T10:18:26.523Z,8.35
2022-10-18T10:20:56.801Z,7.53
2022-10-18T10:23:28.276Z,6.80
2022-10-18T10:25:59.829Z,7.55
2022-10-18T10:28:31.387Z,7.25
2022-10-18T10:31:19.939Z,6.57
2022-10-18T10:33:48.760Z,6.85
2022-10-18T10:36:21.836Z,6.25
2022-10-18T10:39:04.245Z,5.50
2022-10-18T10:41:34.488Z,6.60
2022-10-18T10:44:05.382Z,5.57
2022-10-18T10:46:37.464Z,5.25
2022-10-18T10:52:08.238Z,5.35
2022-10-18T10:54:40.405Z,5.72
2022-10-18T10:57:25.860Z,6.15
2022-10-18T10:59:56.509Z,6.00
2022-10-18T11:02:30.879Z,5.63
2022-10-18T11:05:22.040Z,6.28
2022-10-18T11:07:53.287Z,5.70
2022-10-18T11:10:25.993Z,6.03
2022-10-18T11:13:04.338Z,6.32
2022-10-18T11:15:36.815Z,5.45
2022-10-18T11:18:16.920Z,5.60
2022-10-18T11:20:49.303Z,6.32
2022-10-18T11:23:18.740Z,5.43
2022-10-18T11:26:14.852Z,5.57
2022-10-18T11:29:06.107Z,5.15
2022-10-18T11:31:40.573Z,4.30
2022-10-18T11:34:39.772Z,4.50
2022-10-18T11:37:28.633Z,4.40
2022-10-18T11:40:07.620Z,4.55
2022-10-18T11:42:44.952Z,3.80
2022-10-18T11:45:27.658Z,4.10
2022-10-18T11:48:03.278Z,3.70
2022-10-18T11:50:41.163Z,3.65
2022-10-18T11:53:18.841Z,3.47
2022-10-18T11:55:57.818Z,3.25
2022-10-18T11:58:40.564Z,3.08
2022-10-18T12:01:16.981Z,3.25
2022-10-18T12:04:03.209Z,2.80
2022-10-18T12:06:36.178Z,2.92
2022-10-18T12:09:09.309Z,3.00
2022-10-18T12:11:45.390Z,2.53
2022-10-18T12:14:22.722Z,2.63
2022-10-18T12:17:07.710Z,2.15
2022-10-18T12:19:45.935Z,2.53
2022-10-18T12:22:23.441Z,2.50
2022-10-18T12:24:51.766Z,2.70
2022-10-18T12:27:24.167Z,2.67
2022-10-18T12:29:59.131Z,2.88
2022-10-18T12:32:33.846Z,2.50
2022-10-18T12:35:07.236Z,2.70
2022-10-18T12:38:10.344Z,2.88
2022-10-18T12:40:42.395Z,2.95
2022-10-18T12:43:11.880Z,2.45
2022-10-18T12:45:53.527Z,2.97
2022-10-18T12:48:38.693Z,2.70
2022-10-18T12:51:16.741Z,2.80
2022-10-18T12:53:48.038Z,3.00
2022-10-18T12:56:37.899Z,2.92
2022-10-18T12:59:39.213Z,2.38
2022-10-18T13:02:21.209Z,2.22
2022-10-18T13:04:50.780Z,2.22
2022-10-18T13:07:35.577Z,2.30
2022-10-18T13:10:38.123Z,2.00
2022-10-18T13:13:40.216Z,2.03
2022-10-18T13:16:38.530Z,2.10
2022-10-18T13:19:22.929Z,2.58
2022-10-18T13:22:02.374Z,2.55
2022-10-18T13:24:36.600Z,1.85
2022-10-18T13:27:35.817Z,2.38
2022-10-18T13:30:28.717Z,2.17
2022-10-18T13:33:06.406Z,2.55
2022-10-18T13:35:55.964Z,2.30
2022-10-18T13:38:59.684Z,2.83
2022-10-18T13:41:32.736Z,1.70
2022-10-18T13:44:25.410Z,2.25
2022-10-18T13:47:37.154Z,2.55
2022-10-18T13:50:32.781Z,2.20
2022-10-18T13:53:32.702Z,2.30
2022-10-18T13:56:40.914Z,2.47
2022-10-18T13:59:22.482Z,2.80
2022-10-18T14:02:49.481Z,2.03
2022-10-18T14:05:33.108Z,2.58
2022-10-18T14:08:10.301Z,2.30
2022-10-18T14:11:01.309Z,2.03
2022-10-18T14:13:37.672Z,1.90
2022-10-18T14:16:10.182Z,2.22
2022-10-18T14:18:42.206Z,2.35
2022-10-18T14:21:21.641Z,2.28
2022-10-18T14:23:51.579Z,1.90
2022-10-18T14:26:22.685Z,1.98
2022-10-18T14:29:06.001Z,2.38
2022-10-18T14:31:34.386Z,2.05
2022-10-18T14:34:09.374Z,2.30
2022-10-18T14:36:41.122Z,1.92
2022-10-18T14:39:21.064Z,2.53
2022-10-18T14:41:55.176Z,2.83
2022-10-18T14:44:27.931Z,2.03
2022-10-18T14:47:02.301Z,2.63
2022-10-18T14:49:31.330Z,1.98
2022-10-18T14:52:03.951Z,2.55
2022-10-18T14:54:36.641Z,2.03
2022-10-18T14:57:05.828Z,2.55
2022-10-18T14:59:46.726Z,2.10
2022-10-18T15:02:31.049Z,2.40
2022-10-18T15:05:08.849Z,2.33
2022-10-18T15:07:39.394Z,1.98
2022-10-18T15:10:39.123Z,2.75
2022-10-18T15:13:18.612Z,2.13
2022-10-18T15:15:56.712Z,2.22
2022-10-18T15:18:32.377Z,2.53
2022-10-18T15:21:22.104Z,2.55
2022-10-18T15:23:54.350Z,2.45
2022-10-18T15:26:37.227Z,2.13
2022-10-18T15:29:06.920Z,2.38
2022-10-18T15:31:39.959Z,2.38
2022-10-18T15:34:17.213Z,2.72
2022-10-18T15:36:48.603Z,2.45
2022-10-18T15:39:24.479Z,2.25
2022-10-18T15:41:55.744Z,2.10
2022-10-18T15:44:34.081Z,2.70
2022-10-18T15:47:22.229Z,2.13
2022-10-18T15:49:56.915Z,2.50
2022-10-18T15:52:52.588Z,2.53
2022-10-18T15:55:46.331Z,2.40
2022-10-18T15:58:18.929Z,2.42
2022-10-18T16:00:48.610Z,2.70
2022-10-18T16:03:19.732Z,2.65
2022-10-18T16:05:47.677Z,2.55
2022-10-18T16:08:22.136Z,2.38
2022-10-18T16:10:50.330Z,2.17
2022-10-18T16:13:18.853Z,2.50
2022-10-18T16:15:47.123Z,1.77
2022-10-18T16:18:18.641Z,2.72
2022-10-18T16:20:47.795Z,2.17
2022-10-18T16:23:19.112Z,2.30
2022-10-18T16:25:47.423Z,2.13
2022-10-18T16:28:17.376Z,1.95
2022-10-18T16:30:48.185Z,2.15
2022-10-18T16:33:19.268Z,1.95
2022-10-18T16:35:51.767Z,2.40
2022-10-18T16:38:32.566Z,2.60
2022-10-18T16:41:03.678Z,2.13
2022-10-18T16:43:31.910Z,2.33
2022-10-18T16:46:00.399Z,2.22
2022-10-18T16:48:29.043Z,2.10
2022-10-18T16:50:58.682Z,2.00
2022-10-18T16:53:27.864Z,2.30
2022-10-18T16:55:57.677Z,2.08
2022-10-18T16:58:26.753Z,3.25
2022-10-18T17:00:55.241Z,3.05
2022-10-18T17:03:23.343Z,2.30
2022-10-18T17:05:51.546Z,2.90
2022-10-18T17:08:22.284Z,2.40
2022-10-18T17:10:54.161Z,2.83
2022-10-18T17:13:23.456Z,2.50
2022-10-18T17:15:52.180Z,2.80
2022-10-18T17:18:22.292Z,2.60
2022-10-18T17:20:51.171Z,2.97
2022-10-18T17:23:20.995Z,3.10
2022-10-18T17:26:04.782Z,2.90
2022-10-18T17:28:35.461Z,3.17
2022-10-18T17:31:03.700Z,3.38
2022-10-18T17:33:31.838Z,2.45
2022-10-18T17:36:15.199Z,3.53
2022-10-18T17:38:46.748Z,2.58
2022-10-18T17:41:29.619Z,2.67
2022-10-18T17:43:57.695Z,2.75
2022-10-18T17:46:25.650Z,2.88
2022-10-18T17:48:54.800Z,2.75
2022-10-18T17:51:23.054Z,2.63
2022-10-18T17:53:52.409Z,2.78
2022-10-18T17:56:20.585Z,3.05
2022-10-18T17:58:51.818Z,2.85
2022-10-18T18:01:22.111Z,2.60
2022-10-18T18:03:50.489Z,2.58
2022-10-18T18:06:20.198Z,2.55
2022-10-18T18:08:49.559Z,1.95
2022-10-18T18:11:19.604Z,2.67
2022-10-18T18:13:47.580Z,2.45
2022-10-18T18:16:18.913Z,2.38
2022-10-18T18:18:48.478Z,2.42
2022-10-18T18:21:16.555Z,2.63
2022-10-18T18:23:45.221Z,2.35
2022-10-18T18:26:13.499Z,2.50
2022-10-18T18:28:42.946Z,2.35
2022-10-18T18:31:12.690Z,2.53
2022-10-18T18:33:41.074Z,2.63
2022-10-18T18:36:09.950Z,2.88
2022-10-18T18:38:39.450Z,2.30
2022-10-18T18:41:11.844Z,2.60
2022-10-18T18:43:43.132Z,2.13
2022-10-18T18:46:12.666Z,2.03
2022-10-18T18:48:41.760Z,2.70
2022-10-18T18:51:13.055Z,2.40
2022-10-18T18:54:16.964Z,2.20
2022-10-18T18:57:20.994Z,1.98
2022-10-18T18:59:50.699Z,1.90
2022-10-18T19:02:19.377Z,1.75
2022-10-18T19:04:47.582Z,2.00
2022-10-18T19:07:15.781Z,2.03
2022-10-18T19:09:44.824Z,2.05
2022-10-18T19:12:14.475Z,1.95
2022-10-18T19:14:44.474Z,2.00
2022-10-18T19:17:13.805Z,2.15
2022-10-18T19:19:42.971Z,2.20
2022-10-18T19:22:12.172Z,1.65
2022-10-18T19:24:40.126Z,1.88
2022-10-18T19:27:12.582Z,1.55
2022-10-18T19:29:42.138Z,1.85
2022-10-18T19:32:13.494Z,1.77
2022-10-18T19:34:43.505Z,1.33
2022-10-18T19:37:13.879Z,1.70
2022-10-18T19:39:42.089Z,2.10
2022-10-18T19:42:15.753Z,1.70
2022-10-18T19:44:46.578Z,1.50
2022-10-18T19:47:16.229Z,1.30
2022-10-18T19:49:44.320Z,1.48
2022-10-18T19:52:13.125Z,1.30
2022-10-18T19:54:45.158Z,1.08
2022-10-18T19:57:13.077Z,1.27
2022-10-18T19:59:42.227Z,1.35
2022-10-18T20:02:16.091Z,1.30
2022-10-18T20:04:44.208Z,1.10
2022-10-18T20:07:12.150Z,1.65
2022-10-18T20:09:40.370Z,1.23
2022-10-18T20:12:08.342Z,1.63
2022-10-18T20:14:36.341Z,1.58
2022-10-18T20:17:05.833Z,1.70
2022-10-18T20:19:35.348Z,2.33
2022-10-18T20:22:03.306Z,1.80
2022-10-18T20:24:31.688Z,1.60
2022-10-18T20:26:59.629Z,2.35
2022-10-18T20:29:27.652Z,2.80
2022-10-18T20:31:56.656Z,2.33
2022-10-18T20:34:25.998Z,2.30
2022-10-18T20:36:56.649Z,1.60
2022-10-18T20:39:24.962Z,2.10
2022-10-18T20:41:53.303Z,2.15
2022-10-18T20:44:23.114Z,2.13
2022-10-18T20:46:51.063Z,1.70
2022-10-18T20:49:19.381Z,1.83
2022-10-18T20:51:47.417Z,1.90
2022-10-18T20:54:17.509Z,1.98
2022-10-18T20:56:45.487Z,2.33
2022-10-18T20:59:14.260Z,2.20
2022-10-18T21:01:42.367Z,1.95
2022-10-18T21:04:11.801Z,2.00
2022-10-18T21:06:42.437Z,1.90
2022-10-18T21:09:13.101Z,2.55
2022-10-18T21:11:44.940Z,2.20
2022-10-18T21:14:14.832Z,2.20
2022-10-18T21:16:43.297Z,2.42
2022-10-18T21:19:14.364Z,2.53
2022-10-18T21:21:44.064Z,2.45
2022-10-18T21:24:12.985Z,2.20
2022-10-18T21:26:42.607Z,2.72
2022-10-18T21:29:11.903Z,2.38
2022-10-18T21:31:42.211Z,1.95
2022-10-18T21:34:13.907Z,2.63
2022-10-18T21:36:43.652Z,2.60
2022-10-18T21:39:15.262Z,2.17
2022-10-18T21:41:45.134Z,2.75
2022-10-18T21:44:13.954Z,2.00
2022-10-18T21:46:43.166Z,1.98
2022-10-18T21:49:12.110Z,1.92
2022-10-18T21:51:40.579Z,1.90
2022-10-18T21:54:12.591Z,1.80
2022-10-18T21:56:40.869Z,1.70
2022-10-18T21:59:12.684Z,1.38
2022-10-18T22:01:42.648Z,1.52
2022-10-18T22:04:19.630Z,1.90
2022-10-18T22:06:47.718Z,1.67
2022-10-18T22:09:15.895Z,1.35
2022-10-18T22:11:46.072Z,1.85
2022-10-18T22:14:15.774Z,1.60
2022-10-18T22:16:43.719Z,1.50
2022-10-18T22:19:12.509Z,2.25
2022-10-18T22:21:40.713Z,1.90
2022-10-18T22:24:10.319Z,1.88
2022-10-18T22:26:40.669Z,1.33
2022-10-18T22:29:11.111Z,1.83
2022-10-18T22:31:43.175Z,1.63
2022-10-18T22:34:13.432Z,1.90
2022-10-18T22:36:41.456Z,1.75
2022-10-18T22:39:10.274Z,1.50
2022-10-18T22:41:38.395Z,1.90
2022-10-18T22:44:08.005Z,1.42
2022-10-18T22:46:36.779Z,1.45
2022-10-18T22:49:06.089Z,1.58
2022-10-18T22:54:03.249Z,1.90
2022-10-18T22:56:31.167Z,2.20
2022-10-18T22:58:59.249Z,2.08
2022-10-18T23:01:27.253Z,1.90
2022-10-18T23:03:55.770Z,1.27
2022-10-18T23:06:27.527Z,1.50
2022-10-18T23:08:57.764Z,1.70
2022-10-18T23:11:26.613Z,1.45
2022-10-18T23:13:55.887Z,1.77
2022-10-18T23:16:24.616Z,1.83
2022-10-18T23:18:54.028Z,1.90
2022-10-18T23:21:24.305Z,1.83
2022-10-18T23:23:54.876Z,1.83
2022-10-18T23:26:24.409Z,1.70
2022-10-18T23:28:54.013Z,2.17
2022-10-18T23:31:24.242Z,1.90
2022-10-18T23:33:54.516Z,1.77
2022-10-18T23:36:23.055Z,2.00
2022-10-18T23:38:51.592Z,2.00
2022-10-18T23:41:21.339Z,1.75
2022-10-18T23:43:49.551Z,1.92
2022-10-18T23:46:18.576Z,2.20
2022-10-18T23:48:47.671Z,2.33
2022-10-18T23:51:16.150Z,2.10
2022-10-18T23:53:44.507Z,1.92
2022-10-18T23:56:15.650Z,2.10
2022-10-18T23:58:45.899Z,1.83
